Tempo Aeroporto - Stazione meteorologica di Pomezia (RM)




Webcam Castelli Romani more information Webcam Castelli Romani


Webcam Traffico live more information Webcam Traffico live


avvertimento per Neve / Ghiaccio more information rain snow radar


altri nostri siti meteo:

Pomeziameteo 1Sito sul meteo

Pomeziameteo DashboardSito sul meteo

Caput FrigorisSito sul meteo

BarcellonameteoSito sul meteo

MeteoipassiSito sul meteo

MeteotortoretoSito sul meteo

ViterbometeoSito sul meteo

TortoretometeolidoSito sul meteo

MeteospinacetoSito sul meteo

MeteoardeaSito sul meteo

MeteopalestrinaSito sul meteo

MeteocastelliSito sul meteo

MeteoiserniaSito sul meteo

RomaeurmeteoSito sul meteo

MeteomarconiaSito sul meteo

CastelnuovovomanometeoSito sul meteo

MeteogonzagaSito sul meteo

MeteonetworkInvio dai a Meteonetwork

Rete Linea MeteoInvio dai a Meteonetwork



Neve/Ghiaccio Inizio validita dal: 25-02-2018 13:00 Fino: 26-02-2018 12:59 Allerta per: Neve/Ghiaccio Livello: Arancione info button
Temperature minime estreme Inizio validita dal: 25-02-2018 13:00 Fino: 26-02-2018 00:59 Allerta per: Temperature minime estreme Livello: Arancione info button

Report METAR

   
LIRE - Pratica di mare
Dati ricevuti: 25-02-2018 07:55
Molto nuvoloso  
Molto nuvoloso  
   Vento: NE 13 km/h
Vento: NE 13 km/h
Temperatura: 8°C
Temperatura Vento: 6°C
P.to Rugiada: 7°C
Umidita: 93%
Barometro: 1006 hPa
Nuvole: Molto nuvoloso
Visibilita: oltre 10 km
dettagli cloud: Poche nuvole 3000 ft,
Molto nuvoloso 6000 ft
LIRE 250655Z 03007KT 9999 FEW030 BKN060 08/07 Q1006 RMK BKN VIS MIN 9999 WIND THR13 03007KT WIND THR31 02008KT BLU
LIRF - Fiumicino
Dati ricevuti: 25-02-2018 08:20
Poche nuvole  
Poche nuvole  
   Vento: NE 14.8 km/h
Vento: NE 14.8 km/h
Temperatura: 7°C
Temperatura Vento: 4°C
P.to Rugiada: 5°C
Umidita: 87%
Barometro: 1006 hPa
Nuvole: Poche nuvole
Visibilita: oltre 10 km
dettagli cloud: Poche nuvole 5000 ft
LIRF 250720Z 05008KT 9999 FEW050 07/05 Q1006 NOSIG
LIRA - Ciampino
Dati ricevuti: 25-02-2018 08:20
Molto nuvoloso  
Molto nuvoloso  
   Vento: Nord 7.4 km/h
Vento: Nord 7.4 km/h
Temperatura: 5°C
Temperatura Vento: 3°C
P.to Rugiada: 4°C
Umidita: 93%
Barometro: 1006 hPa
Nuvole: Molto nuvoloso
Visibilita: oltre 10 km
dettagli cloud: Poche nuvole 3000 ft,
Molto nuvoloso 5000 ft
LIRA 250720Z 01004KT 9999 FEW030 BKN050 05/04 Q1006
LIRL - Latina
Dati ricevuti: 23-02-2018 18:55
DATI Obsoleti
Pioggia leggera, Molto nuvoloso  
Pioggia leggera, Molto nuvoloso  
   Vento: Oriente 24.1 km/h
Vento: Oriente 24.1 km/h
Temperatura: 12°C
P.to Rugiada: 8°C
Umidita: 77%
Barometro: 996 hPa
Nuvole: Molto nuvoloso
Visibilita: oltre 10 km
dettagli cloud: Parzialmente nuvoloso 2000 ft,
Molto nuvoloso 4000 ft
LIRL 231755Z 09013KT 9999 -RA SCT020 BKN040 12/08 Q0996
  

Script sviluppato da  Saratoga-weather.org Adattato per il modello da  Weerstation Leuven

Potete trovare le nostre info meteo anche a:

UK Metoffice

European Weather Network

Weather Underground

AWEKAS

Citizen Weather Observer Program (CWOP)

HAMweather, WeatherForYou, PWS Weather

Strumentazione usata:

Stazione meteo
Davis VP2

Programma gestore dati meteo
WVIEW

Server per i dati meteo
Pc-WDS5

Provider
PC-HP-6005

Davis VP2

WVIEW

Pc-WDS5

PC-HP-6005